sensor_id;sensor_type;location;lat;lon;timestamp;P1;durP1;ratioP1;P2;durP2;ratioP2
72590;SDS011;60625;51.212;5.952;2024-01-27T00:01:35;12.20;;;2.30;;
72590;SDS011;60625;51.212;5.952;2024-01-27T00:06:36;10.00;;;1.90;;
72590;SDS011;60625;51.212;5.952;2024-01-27T00:11:37;10.50;;;2.10;;
72590;SDS011;60625;51.212;5.952;2024-01-27T00:16:37;11.50;;;1.60;;
72590;SDS011;60625;51.212;5.952;2024-01-27T00:21:38;11.60;;;2.20;;
72590;SDS011;60625;51.212;5.952;2024-01-27T00:26:38;11.80;;;2.70;;
72590;SDS011;60625;51.212;5.952;2024-01-27T00:31:39;12.60;;;2.30;;
72590;SDS011;60625;51.212;5.952;2024-01-27T00:36:39;9.30;;;2.20;;
72590;SDS011;60625;51.212;5.952;2024-01-27T00:41:41;16.70;;;2.30;;
72590;SDS011;60625;51.212;5.952;2024-01-27T00:46:42;12.40;;;2.20;;
72590;SDS011;60625;51.212;5.952;2024-01-27T00:51:43;12.00;;;2.00;;
72590;SDS011;60625;51.212;5.952;2024-01-27T00:56:43;8.00;;;2.00;;
72590;SDS011;60625;51.212;5.952;2024-01-27T01:01:44;9.60;;;1.70;;
72590;SDS011;60625;51.212;5.952;2024-01-27T01:06:44;10.60;;;1.70;;
72590;SDS011;60625;51.212;5.952;2024-01-27T01:11:45;13.40;;;2.30;;
72590;SDS011;60625;51.212;5.952;2024-01-27T01:16:45;12.00;;;2.10;;
72590;SDS011;60625;51.212;5.952;2024-01-27T01:21:46;13.60;;;2.80;;
72590;SDS011;60625;51.212;5.952;2024-01-27T01:26:46;16.20;;;2.70;;
72590;SDS011;60625;51.212;5.952;2024-01-27T01:31:47;11.60;;;2.00;;
72590;SDS011;60625;51.212;5.952;2024-01-27T01:36:48;15.60;;;2.70;;
72590;SDS011;60625;51.212;5.952;2024-01-27T01:41:48;10.80;;;2.80;;
72590;SDS011;60625;51.212;5.952;2024-01-27T01:46:49;11.20;;;2.60;;
72590;SDS011;60625;51.212;5.952;2024-01-27T01:51:50;17.30;;;2.80;;
72590;SDS011;60625;51.212;5.952;2024-01-27T01:56:51;16.00;;;2.40;;
72590;SDS011;60625;51.212;5.952;2024-01-27T02:01:51;11.70;;;3.10;;
72590;SDS011;60625;51.212;5.952;2024-01-27T02:06:52;14.40;;;2.90;;
72590;SDS011;60625;51.212;5.952;2024-01-27T02:11:53;15.40;;;2.40;;
72590;SDS011;60625;51.212;5.952;2024-01-27T02:16:54;13.30;;;3.10;;
72590;SDS011;60625;51.212;5.952;2024-01-27T02:21:54;13.90;;;2.60;;
72590;SDS011;60625;51.212;5.952;2024-01-27T02:26:55;15.50;;;3.50;;
72590;SDS011;60625;51.212;5.952;2024-01-27T02:31:56;13.00;;;3.20;;
72590;SDS011;60625;51.212;5.952;2024-01-27T02:36:56;12.70;;;3.50;;
72590;SDS011;60625;51.212;5.952;2024-01-27T02:41:57;12.40;;;3.50;;
72590;SDS011;60625;51.212;5.952;2024-01-27T02:46:57;17.40;;;3.80;;
72590;SDS011;60625;51.212;5.952;2024-01-27T02:51:58;12.10;;;3.30;;
72590;SDS011;60625;51.212;5.952;2024-01-27T02:56:58;8.30;;;3.10;;
72590;SDS011;60625;51.212;5.952;2024-01-27T03:01:59;14.30;;;3.60;;
72590;SDS011;60625;51.212;5.952;2024-01-27T03:07:00;12.10;;;3.70;;
72590;SDS011;60625;51.212;5.952;2024-01-27T03:12:02;17.50;;;3.40;;
72590;SDS011;60625;51.212;5.952;2024-01-27T03:17:03;12.50;;;3.50;;
72590;SDS011;60625;51.212;5.952;2024-01-27T03:22:04;13.20;;;3.20;;
72590;SDS011;60625;51.212;5.952;2024-01-27T03:27:04;12.00;;;3.20;;
72590;SDS011;60625;51.212;5.952;2024-01-27T03:32:05;11.20;;;3.30;;
72590;SDS011;60625;51.212;5.952;2024-01-27T03:37:05;10.30;;;3.40;;
72590;SDS011;60625;51.212;5.952;2024-01-27T03:42:06;13.60;;;4.30;;
72590;SDS011;60625;51.212;5.952;2024-01-27T03:47:06;12.90;;;3.40;;
72590;SDS011;60625;51.212;5.952;2024-01-27T03:52:07;16.20;;;3.20;;
72590;SDS011;60625;51.212;5.952;2024-01-27T03:57:07;20.20;;;3.60;;
72590;SDS011;60625;51.212;5.952;2024-01-27T04:02:08;11.00;;;3.10;;
72590;SDS011;60625;51.212;5.952;2024-01-27T04:07:09;13.90;;;2.90;;
72590;SDS011;60625;51.212;5.952;2024-01-27T04:12:09;15.20;;;3.40;;
72590;SDS011;60625;51.212;5.952;2024-01-27T04:17:10;17.50;;;3.20;;
72590;SDS011;60625;51.212;5.952;2024-01-27T04:22:10;11.40;;;3.30;;
72590;SDS011;60625;51.212;5.952;2024-01-27T04:27:11;14.90;;;3.20;;
72590;SDS011;60625;51.212;5.952;2024-01-27T04:32:12;14.60;;;3.50;;
72590;SDS011;60625;51.212;5.952;2024-01-27T04:37:13;10.60;;;3.20;;
72590;SDS011;60625;51.212;5.952;2024-01-27T04:42:14;12.50;;;3.00;;
72590;SDS011;60625;51.212;5.952;2024-01-27T04:47:14;14.20;;;3.00;;
72590;SDS011;60625;51.212;5.952;2024-01-27T04:52:15;15.20;;;3.60;;
72590;SDS011;60625;51.212;5.952;2024-01-27T04:57:16;15.20;;;3.70;;
72590;SDS011;60625;51.212;5.952;2024-01-27T05:02:17;14.70;;;3.50;;
72590;SDS011;60625;51.212;5.952;2024-01-27T05:07:19;14.70;;;3.90;;
72590;SDS011;60625;51.212;5.952;2024-01-27T05:12:19;14.20;;;3.80;;
72590;SDS011;60625;51.212;5.952;2024-01-27T05:17:20;20.30;;;3.50;;
72590;SDS011;60625;51.212;5.952;2024-01-27T05:22:20;17.00;;;3.80;;
72590;SDS011;60625;51.212;5.952;2024-01-27T05:27:21;16.70;;;4.50;;
72590;SDS011;60625;51.212;5.952;2024-01-27T05:32:21;20.00;;;5.90;;
72590;SDS011;60625;51.212;5.952;2024-01-27T05:37:22;12.90;;;3.60;;
72590;SDS011;60625;51.212;5.952;2024-01-27T05:42:23;16.00;;;4.20;;
72590;SDS011;60625;51.212;5.952;2024-01-27T05:47:23;18.30;;;4.50;;
72590;SDS011;60625;51.212;5.952;2024-01-27T05:52:23;15.20;;;3.80;;
72590;SDS011;60625;51.212;5.952;2024-01-27T05:57:25;14.80;;;4.30;;
72590;SDS011;60625;51.212;5.952;2024-01-27T06:02:26;13.70;;;4.10;;
72590;SDS011;60625;51.212;5.952;2024-01-27T06:07:26;14.90;;;4.20;;
72590;SDS011;60625;51.212;5.952;2024-01-27T06:12:27;18.90;;;4.50;;
72590;SDS011;60625;51.212;5.952;2024-01-27T06:17:28;14.30;;;4.50;;
72590;SDS011;60625;51.212;5.952;2024-01-27T06:22:28;16.30;;;5.00;;
72590;SDS011;60625;51.212;5.952;2024-01-27T06:27:28;15.40;;;4.60;;
72590;SDS011;60625;51.212;5.952;2024-01-27T06:32:29;16.70;;;4.60;;
72590;SDS011;60625;51.212;5.952;2024-01-27T06:37:30;13.10;;;4.70;;
72590;SDS011;60625;51.212;5.952;2024-01-27T06:42:31;16.40;;;4.10;;
72590;SDS011;60625;51.212;5.952;2024-01-27T06:47:32;24.00;;;5.10;;
72590;SDS011;60625;51.212;5.952;2024-01-27T06:52:35;18.20;;;4.20;;
72590;SDS011;60625;51.212;5.952;2024-01-27T06:57:36;16.40;;;4.60;;
72590;SDS011;60625;51.212;5.952;2024-01-27T07:02:36;18.00;;;4.70;;
72590;SDS011;60625;51.212;5.952;2024-01-27T07:07:37;17.90;;;5.10;;
72590;SDS011;60625;51.212;5.952;2024-01-27T07:12:38;14.60;;;3.50;;
72590;SDS011;60625;51.212;5.952;2024-01-27T07:17:39;20.40;;;4.40;;
72590;SDS011;60625;51.212;5.952;2024-01-27T07:22:39;14.60;;;3.40;;
72590;SDS011;60625;51.212;5.952;2024-01-27T07:27:40;13.00;;;4.00;;
72590;SDS011;60625;51.212;5.952;2024-01-27T07:32:40;15.70;;;4.40;;
72590;SDS011;60625;51.212;5.952;2024-01-27T07:37:41;13.70;;;4.60;;
72590;SDS011;60625;51.212;5.952;2024-01-27T07:42:41;21.10;;;5.30;;
72590;SDS011;60625;51.212;5.952;2024-01-27T07:47:42;15.30;;;4.70;;
72590;SDS011;60625;51.212;5.952;2024-01-27T07:52:43;20.10;;;4.40;;
72590;SDS011;60625;51.212;5.952;2024-01-27T07:57:43;16.20;;;4.10;;
72590;SDS011;60625;51.212;5.952;2024-01-27T08:02:44;17.80;;;4.40;;
72590;SDS011;60625;51.212;5.952;2024-01-27T08:07:44;18.10;;;4.20;;
72590;SDS011;60625;51.212;5.952;2024-01-27T08:12:45;17.20;;;4.10;;
72590;SDS011;60625;51.212;5.952;2024-01-27T08:17:47;13.40;;;3.70;;
72590;SDS011;60625;51.212;5.952;2024-01-27T08:22:51;13.30;;;3.90;;
72590;SDS011;60625;51.212;5.952;2024-01-27T08:27:51;19.10;;;4.70;;
72590;SDS011;60625;51.212;5.952;2024-01-27T08:32:52;13.20;;;3.90;;
72590;SDS011;60625;51.212;5.952;2024-01-27T08:37:52;17.30;;;3.80;;
72590;SDS011;60625;51.212;5.952;2024-01-27T08:42:53;22.10;;;4.10;;
72590;SDS011;60625;51.212;5.952;2024-01-27T08:47:54;15.20;;;3.80;;
72590;SDS011;60625;51.212;5.952;2024-01-27T08:52:54;13.60;;;4.00;;
72590;SDS011;60625;51.212;5.952;2024-01-27T08:57:56;15.60;;;4.10;;
72590;SDS011;60625;51.212;5.952;2024-01-27T09:02:57;15.40;;;4.00;;
72590;SDS011;60625;51.212;5.952;2024-01-27T09:07:58;13.90;;;3.20;;
72590;SDS011;60625;51.212;5.952;2024-01-27T09:12:59;14.60;;;4.10;;
72590;SDS011;60625;51.212;5.952;2024-01-27T09:18:02;19.30;;;4.20;;
72590;SDS011;60625;51.212;5.952;2024-01-27T09:23:04;17.50;;;3.50;;
72590;SDS011;60625;51.212;5.952;2024-01-27T09:28:05;12.70;;;3.30;;
72590;SDS011;60625;51.212;5.952;2024-01-27T09:33:05;11.70;;;3.30;;
72590;SDS011;60625;51.212;5.952;2024-01-27T09:38:06;15.90;;;4.30;;
72590;SDS011;60625;51.212;5.952;2024-01-27T09:43:13;13.70;;;3.40;;
72590;SDS011;60625;51.212;5.952;2024-01-27T09:48:15;14.10;;;3.10;;
72590;SDS011;60625;51.212;5.952;2024-01-27T09:53:19;13.60;;;3.70;;
72590;SDS011;60625;51.212;5.952;2024-01-27T09:58:22;11.80;;;2.90;;
72590;SDS011;60625;51.212;5.952;2024-01-27T10:03:25;21.00;;;3.50;;
72590;SDS011;60625;51.212;5.952;2024-01-27T10:08:27;15.70;;;3.20;;
72590;SDS011;60625;51.212;5.952;2024-01-27T10:13:28;14.70;;;3.30;;
72590;SDS011;60625;51.212;5.952;2024-01-27T10:18:33;14.40;;;3.20;;
72590;SDS011;60625;51.212;5.952;2024-01-27T10:23:39;15.90;;;3.40;;
72590;SDS011;60625;51.212;5.952;2024-01-27T10:28:42;22.30;;;4.00;;
72590;SDS011;60625;51.212;5.952;2024-01-27T10:33:51;10.40;;;3.70;;
72590;SDS011;60625;51.212;5.952;2024-01-27T10:38:54;14.80;;;3.70;;
72590;SDS011;60625;51.212;5.952;2024-01-27T10:43:56;12.40;;;3.60;;
72590;SDS011;60625;51.212;5.952;2024-01-27T10:48:59;17.00;;;3.20;;
72590;SDS011;60625;51.212;5.952;2024-01-27T10:54:02;15.40;;;3.30;;
72590;SDS011;60625;51.212;5.952;2024-01-27T10:59:04;14.30;;;3.30;;
72590;SDS011;60625;51.212;5.952;2024-01-27T11:04:06;17.00;;;2.90;;
72590;SDS011;60625;51.212;5.952;2024-01-27T11:09:10;12.10;;;2.90;;
72590;SDS011;60625;51.212;5.952;2024-01-27T11:14:13;13.60;;;3.00;;
72590;SDS011;60625;51.212;5.952;2024-01-27T11:19:17;14.90;;;3.40;;
72590;SDS011;60625;51.212;5.952;2024-01-27T11:24:23;14.70;;;3.90;;
72590;SDS011;60625;51.212;5.952;2024-01-27T11:29:24;8.10;;;2.60;;
72590;SDS011;60625;51.212;5.952;2024-01-27T11:34:40;11.10;;;3.00;;
72590;SDS011;60625;51.212;5.952;2024-01-27T11:39:45;11.90;;;2.40;;
72590;SDS011;60625;51.212;5.952;2024-01-27T11:44:46;12.10;;;3.00;;
72590;SDS011;60625;51.212;5.952;2024-01-27T11:49:52;13.20;;;3.00;;
72590;SDS011;60625;51.212;5.952;2024-01-27T11:54:55;17.30;;;2.80;;
72590;SDS011;60625;51.212;5.952;2024-01-27T11:59:56;14.90;;;2.70;;
72590;SDS011;60625;51.212;5.952;2024-01-27T12:04:57;10.40;;;2.70;;
72590;SDS011;60625;51.212;5.952;2024-01-27T12:09:58;9.40;;;2.50;;
72590;SDS011;60625;51.212;5.952;2024-01-27T12:14:59;14.40;;;2.80;;
72590;SDS011;60625;51.212;5.952;2024-01-27T12:20:14;8.00;;;2.20;;
72590;SDS011;60625;51.212;5.952;2024-01-27T12:25:16;9.00;;;2.10;;
72590;SDS011;60625;51.212;5.952;2024-01-27T12:30:17;11.40;;;2.00;;
72590;SDS011;60625;51.212;5.952;2024-01-27T12:35:18;10.60;;;2.20;;
72590;SDS011;60625;51.212;5.952;2024-01-27T12:40:23;15.10;;;2.20;;
72590;SDS011;60625;51.212;5.952;2024-01-27T12:45:24;10.10;;;1.80;;
72590;SDS011;60625;51.212;5.952;2024-01-27T12:50:24;10.80;;;1.90;;
72590;SDS011;60625;51.212;5.952;2024-01-27T12:55:28;11.70;;;2.00;;
72590;SDS011;60625;51.212;5.952;2024-01-27T13:00:29;8.60;;;1.70;;
72590;SDS011;60625;51.212;5.952;2024-01-27T13:05:29;7.00;;;1.30;;
72590;SDS011;60625;51.212;5.952;2024-01-27T13:10:30;11.30;;;1.50;;
72590;SDS011;60625;51.212;5.952;2024-01-27T13:15:34;7.70;;;1.80;;
72590;SDS011;60625;51.212;5.952;2024-01-27T13:20:38;13.00;;;1.60;;
72590;SDS011;60625;51.212;5.952;2024-01-27T13:25:43;8.10;;;1.30;;
72590;SDS011;60625;51.212;5.952;2024-01-27T13:30:43;7.40;;;1.50;;
72590;SDS011;60625;51.212;5.952;2024-01-27T13:35:44;12.80;;;2.20;;
72590;SDS011;60625;51.212;5.952;2024-01-27T13:40:47;8.40;;;1.90;;
72590;SDS011;60625;51.212;5.952;2024-01-27T13:45:52;7.90;;;1.50;;
72590;SDS011;60625;51.212;5.952;2024-01-27T13:50:55;11.90;;;1.60;;
72590;SDS011;60625;51.212;5.952;2024-01-27T13:55:56;8.80;;;1.40;;
72590;SDS011;60625;51.212;5.952;2024-01-27T14:00:57;8.80;;;1.40;;
72590;SDS011;60625;51.212;5.952;2024-01-27T14:05:58;7.10;;;1.20;;
72590;SDS011;60625;51.212;5.952;2024-01-27T14:10:59;7.90;;;1.50;;
72590;SDS011;60625;51.212;5.952;2024-01-27T14:16:00;12.20;;;1.80;;
72590;SDS011;60625;51.212;5.952;2024-01-27T14:21:00;11.20;;;2.90;;
72590;SDS011;60625;51.212;5.952;2024-01-27T14:26:01;13.00;;;2.60;;
72590;SDS011;60625;51.212;5.952;2024-01-27T14:31:01;16.00;;;6.20;;
72590;SDS011;60625;51.212;5.952;2024-01-27T14:36:02;10.00;;;2.30;;
72590;SDS011;60625;51.212;5.952;2024-01-27T14:41:03;9.10;;;2.00;;
72590;SDS011;60625;51.212;5.952;2024-01-27T14:46:06;8.70;;;1.60;;
72590;SDS011;60625;51.212;5.952;2024-01-27T14:51:11;10.40;;;1.60;;
72590;SDS011;60625;51.212;5.952;2024-01-27T14:56:13;6.20;;;1.00;;
72590;SDS011;60625;51.212;5.952;2024-01-27T15:01:13;12.00;;;2.90;;
72590;SDS011;60625;51.212;5.952;2024-01-27T15:06:16;10.70;;;1.30;;
72590;SDS011;60625;51.212;5.952;2024-01-27T15:11:16;11.50;;;1.50;;
72590;SDS011;60625;51.212;5.952;2024-01-27T15:16:17;7.60;;;1.70;;
72590;SDS011;60625;51.212;5.952;2024-01-27T15:21:18;8.60;;;1.40;;
72590;SDS011;60625;51.212;5.952;2024-01-27T15:26:18;6.50;;;1.50;;
72590;SDS011;60625;51.212;5.952;2024-01-27T15:31:19;7.10;;;2.20;;
72590;SDS011;60625;51.212;5.952;2024-01-27T15:36:19;8.80;;;1.90;;
72590;SDS011;60625;51.212;5.952;2024-01-27T15:41:20;12.30;;;1.60;;
72590;SDS011;60625;51.212;5.952;2024-01-27T15:46:21;10.70;;;1.80;;
72590;SDS011;60625;51.212;5.952;2024-01-27T15:51:21;5.80;;;1.40;;
72590;SDS011;60625;51.212;5.952;2024-01-27T15:56:22;9.00;;;1.90;;
72590;SDS011;60625;51.212;5.952;2024-01-27T16:01:23;9.40;;;1.90;;
72590;SDS011;60625;51.212;5.952;2024-01-27T16:06:23;12.60;;;2.10;;
72590;SDS011;60625;51.212;5.952;2024-01-27T16:11:24;12.60;;;2.00;;
72590;SDS011;60625;51.212;5.952;2024-01-27T16:16:25;11.20;;;2.10;;
72590;SDS011;60625;51.212;5.952;2024-01-27T16:21:27;10.10;;;1.50;;
72590;SDS011;60625;51.212;5.952;2024-01-27T16:26:28;6.40;;;1.30;;
72590;SDS011;60625;51.212;5.952;2024-01-27T16:31:30;11.30;;;2.30;;
72590;SDS011;60625;51.212;5.952;2024-01-27T16:36:33;11.50;;;1.60;;
72590;SDS011;60625;51.212;5.952;2024-01-27T16:41:33;11.70;;;2.10;;
72590;SDS011;60625;51.212;5.952;2024-01-27T16:46:34;8.40;;;1.50;;
72590;SDS011;60625;51.212;5.952;2024-01-27T16:51:34;9.50;;;2.30;;
72590;SDS011;60625;51.212;5.952;2024-01-27T16:56:35;11.90;;;2.60;;
72590;SDS011;60625;51.212;5.952;2024-01-27T17:01:35;9.00;;;2.30;;
72590;SDS011;60625;51.212;5.952;2024-01-27T17:06:36;7.10;;;1.10;;
72590;SDS011;60625;51.212;5.952;2024-01-27T17:11:36;7.60;;;2.00;;
72590;SDS011;60625;51.212;5.952;2024-01-27T17:16:37;10.10;;;2.00;;
72590;SDS011;60625;51.212;5.952;2024-01-27T17:21:38;6.50;;;1.30;;
72590;SDS011;60625;51.212;5.952;2024-01-27T17:26:38;6.40;;;1.40;;
72590;SDS011;60625;51.212;5.952;2024-01-27T17:31:39;8.90;;;1.30;;
72590;SDS011;60625;51.212;5.952;2024-01-27T17:36:39;7.60;;;1.70;;
72590;SDS011;60625;51.212;5.952;2024-01-27T17:41:39;8.90;;;1.80;;
72590;SDS011;60625;51.212;5.952;2024-01-27T17:46:41;7.70;;;1.90;;
72590;SDS011;60625;51.212;5.952;2024-01-27T17:51:44;8.00;;;2.30;;
72590;SDS011;60625;51.212;5.952;2024-01-27T17:56:47;11.30;;;1.90;;
72590;SDS011;60625;51.212;5.952;2024-01-27T18:01:49;10.50;;;2.40;;
72590;SDS011;60625;51.212;5.952;2024-01-27T18:06:50;13.70;;;2.80;;
72590;SDS011;60625;51.212;5.952;2024-01-27T18:11:50;14.50;;;3.70;;
72590;SDS011;60625;51.212;5.952;2024-01-27T18:16:51;15.30;;;3.60;;
72590;SDS011;60625;51.212;5.952;2024-01-27T18:21:52;14.10;;;4.40;;
72590;SDS011;60625;51.212;5.952;2024-01-27T18:26:52;13.80;;;4.30;;
72590;SDS011;60625;51.212;5.952;2024-01-27T18:31:53;18.20;;;9.30;;
72590;SDS011;60625;51.212;5.952;2024-01-27T18:36:54;20.40;;;8.90;;
72590;SDS011;60625;51.212;5.952;2024-01-27T18:41:55;18.60;;;7.90;;
72590;SDS011;60625;51.212;5.952;2024-01-27T18:46:55;20.40;;;8.00;;
72590;SDS011;60625;51.212;5.952;2024-01-27T18:51:56;13.00;;;4.90;;
72590;SDS011;60625;51.212;5.952;2024-01-27T18:56:57;12.60;;;4.40;;
72590;SDS011;60625;51.212;5.952;2024-01-27T19:01:58;10.90;;;3.50;;
72590;SDS011;60625;51.212;5.952;2024-01-27T19:06:59;14.90;;;4.50;;
72590;SDS011;60625;51.212;5.952;2024-01-27T19:11:59;11.60;;;3.80;;
72590;SDS011;60625;51.212;5.952;2024-01-27T19:17:00;10.70;;;3.20;;
72590;SDS011;60625;51.212;5.952;2024-01-27T19:22:02;9.80;;;2.70;;
72590;SDS011;60625;51.212;5.952;2024-01-27T19:27:03;10.00;;;3.20;;
72590;SDS011;60625;51.212;5.952;2024-01-27T19:32:04;8.10;;;2.10;;
72590;SDS011;60625;51.212;5.952;2024-01-27T19:37:05;7.70;;;2.60;;
72590;SDS011;60625;51.212;5.952;2024-01-27T19:42:06;9.20;;;2.60;;
72590;SDS011;60625;51.212;5.952;2024-01-27T19:47:07;14.30;;;4.50;;
72590;SDS011;60625;51.212;5.952;2024-01-27T19:52:08;7.70;;;2.50;;
72590;SDS011;60625;51.212;5.952;2024-01-27T19:57:08;11.00;;;2.90;;
72590;SDS011;60625;51.212;5.952;2024-01-27T20:02:09;8.90;;;2.70;;
72590;SDS011;60625;51.212;5.952;2024-01-27T20:07:13;11.70;;;4.40;;
72590;SDS011;60625;51.212;5.952;2024-01-27T20:12:14;15.70;;;4.40;;
72590;SDS011;60625;51.212;5.952;2024-01-27T20:17:14;13.40;;;4.00;;
72590;SDS011;60625;51.212;5.952;2024-01-27T20:22:15;16.30;;;5.30;;
72590;SDS011;60625;51.212;5.952;2024-01-27T20:27:16;13.50;;;2.80;;
72590;SDS011;60625;51.212;5.952;2024-01-27T20:32:16;11.40;;;4.20;;
72590;SDS011;60625;51.212;5.952;2024-01-27T20:37:17;9.40;;;3.40;;
72590;SDS011;60625;51.212;5.952;2024-01-27T20:42:17;16.10;;;5.40;;
72590;SDS011;60625;51.212;5.952;2024-01-27T20:47:18;16.90;;;5.40;;
72590;SDS011;60625;51.212;5.952;2024-01-27T20:52:19;12.30;;;5.20;;
72590;SDS011;60625;51.212;5.952;2024-01-27T20:57:20;12.80;;;4.10;;
72590;SDS011;60625;51.212;5.952;2024-01-27T21:02:23;15.90;;;5.70;;
72590;SDS011;60625;51.212;5.952;2024-01-27T21:07:23;17.20;;;6.60;;
72590;SDS011;60625;51.212;5.952;2024-01-27T21:12:24;17.40;;;7.00;;
72590;SDS011;60625;51.212;5.952;2024-01-27T21:17:25;15.30;;;6.60;;
72590;SDS011;60625;51.212;5.952;2024-01-27T21:22:28;17.30;;;7.00;;
72590;SDS011;60625;51.212;5.952;2024-01-27T21:27:29;17.40;;;6.80;;
72590;SDS011;60625;51.212;5.952;2024-01-27T21:32:29;17.60;;;5.80;;
72590;SDS011;60625;51.212;5.952;2024-01-27T21:37:30;13.00;;;5.30;;
72590;SDS011;60625;51.212;5.952;2024-01-27T21:42:30;12.20;;;5.00;;
72590;SDS011;60625;51.212;5.952;2024-01-27T21:47:31;13.30;;;4.80;;
72590;SDS011;60625;51.212;5.952;2024-01-27T21:52:33;14.40;;;5.40;;
72590;SDS011;60625;51.212;5.952;2024-01-27T21:57:34;13.50;;;5.00;;
72590;SDS011;60625;51.212;5.952;2024-01-27T22:02:35;15.10;;;4.90;;
72590;SDS011;60625;51.212;5.952;2024-01-27T22:07:37;12.80;;;4.30;;
72590;SDS011;60625;51.212;5.952;2024-01-27T22:12:38;13.90;;;6.40;;
72590;SDS011;60625;51.212;5.952;2024-01-27T22:17:39;19.40;;;5.40;;
72590;SDS011;60625;51.212;5.952;2024-01-27T22:22:43;15.90;;;5.50;;
72590;SDS011;60625;51.212;5.952;2024-01-27T22:27:45;16.20;;;5.10;;
72590;SDS011;60625;51.212;5.952;2024-01-27T22:32:45;21.70;;;5.80;;
72590;SDS011;60625;51.212;5.952;2024-01-27T22:37:46;15.40;;;4.40;;
72590;SDS011;60625;51.212;5.952;2024-01-27T22:42:47;12.20;;;5.40;;
72590;SDS011;60625;51.212;5.952;2024-01-27T22:47:48;10.40;;;4.70;;
72590;SDS011;60625;51.212;5.952;2024-01-27T22:52:48;18.50;;;5.80;;
72590;SDS011;60625;51.212;5.952;2024-01-27T22:57:52;20.30;;;5.60;;
72590;SDS011;60625;51.212;5.952;2024-01-27T23:02:52;16.00;;;5.10;;
72590;SDS011;60625;51.212;5.952;2024-01-27T23:07:53;19.00;;;5.80;;
72590;SDS011;60625;51.212;5.952;2024-01-27T23:12:53;17.40;;;5.80;;
72590;SDS011;60625;51.212;5.952;2024-01-27T23:17:54;13.20;;;5.40;;
72590;SDS011;60625;51.212;5.952;2024-01-27T23:22:55;14.80;;;5.70;;
72590;SDS011;60625;51.212;5.952;2024-01-27T23:27:55;14.10;;;5.60;;
72590;SDS011;60625;51.212;5.952;2024-01-27T23:32:56;13.60;;;5.00;;
72590;SDS011;60625;51.212;5.952;2024-01-27T23:37:56;14.60;;;5.10;;
72590;SDS011;60625;51.212;5.952;2024-01-27T23:42:57;17.80;;;4.60;;
72590;SDS011;60625;51.212;5.952;2024-01-27T23:48:01;13.40;;;4.90;;
72590;SDS011;60625;51.212;5.952;2024-01-27T23:53:04;16.50;;;5.20;;
72590;SDS011;60625;51.212;5.952;2024-01-27T23:58:09;15.60;;;5.50;;
